Time,TemperatureF,DewpointF,PressureIn,WindDirection,WindDirectionDegrees,WindSpeedMPH,WindSpeedGustMPH,Humidity,HourlyPrecipIn,Conditions,Clouds,dailyrainin,SoftwareType,DateUTC
2013-03-10 00:01:00,51.0,18.0,30.24,NW,321,4.0,9.0,27,0.00,,,0.00,,2013-03-10 08:01:00,
2013-03-10 00:11:00,51.0,18.0,30.24,NW,321,4.0,9.0,27,0.00,,,0.00,,2013-03-10 08:11:00,
2013-03-10 00:21:00,50.0,18.0,30.24,NW,306,8.0,13.0,28,0.00,,,0.00,,2013-03-10 08:21:00,
2013-03-10 00:31:00,50.0,18.0,30.24,NW,314,10.0,14.0,28,0.00,,,0.00,,2013-03-10 08:31:00,
2013-03-10 00:42:00,49.0,16.0,30.24,WNW,291,6.0,11.0,27,0.00,,,0.00,,2013-03-10 08:42:00,
2013-03-10 00:51:00,49.0,16.0,30.24,WNW,291,6.0,11.0,27,0.00,,,0.00,,2013-03-10 08:51:00,
2013-03-10 01:01:00,49.0,19.0,30.24,WNW,287,4.0,8.0,30,0.00,,,0.00,,2013-03-10 09:01:00,
2013-03-10 01:11:00,49.0,19.0,30.24,WNW,287,4.0,8.0,30,0.00,,,0.00,,2013-03-10 09:11:00,
2013-03-10 01:21:00,47.0,19.0,30.25,West,263,3.0,6.0,32,0.00,,,0.00,,2013-03-10 09:21:00,
2013-03-10 01:31:00,47.0,19.0,30.26,West,265,2.0,5.0,33,0.00,,,0.00,,2013-03-10 09:31:00,
2013-03-10 01:41:00,47.0,19.0,30.26,West,265,2.0,5.0,33,0.00,,,0.00,,2013-03-10 09:41:00,
2013-03-10 01:51:00,45.0,18.0,30.26,West,267,0.0,1.0,34,0.00,,,0.00,,2013-03-10 09:51:00,
2013-03-10 03:01:00,45.0,18.0,30.26,West,267,0.0,3.0,34,0.00,,,0.00,,2013-03-10 10:01:00,
2013-03-10 03:11:00,45.0,18.0,30.26,West,267,0.0,3.0,34,0.00,,,0.00,,2013-03-10 10:11:00,
2013-03-10 03:31:00,43.0,16.0,30.26,WNW,296,5.0,10.0,33,0.00,,,0.00,,2013-03-10 10:31:00,
2013-03-10 03:41:00,44.0,16.0,30.25,WNW,300,5.0,10.0,32,0.00,,,0.00,,2013-03-10 10:41:00,
2013-03-10 03:52:00,44.0,16.0,30.25,WNW,300,5.0,10.0,32,0.00,,,0.00,,2013-03-10 10:52:00,
2013-03-10 04:01:00,44.0,16.0,30.25,WNW,300,5.0,10.0,32,0.00,,,0.00,,2013-03-10 11:01:00,
2013-03-10 04:11:00,45.0,15.0,30.25,WNW,283,7.0,14.0,30,0.00,,,0.00,,2013-03-10 11:11:00,
2013-03-10 04:21:00,45.0,15.0,30.25,WNW,283,7.0,14.0,30,0.00,,,0.00,,2013-03-10 11:21:00,
2013-03-10 04:31:00,46.0,13.0,30.26,NW,308,8.0,11.0,26,0.00,,,0.00,,2013-03-10 11:31:00,
2013-03-10 04:42:00,46.0,13.0,30.26,NW,308,8.0,11.0,26,0.00,,,0.00,,2013-03-10 11:42:00,
2013-03-10 04:52:00,47.0,16.0,30.26,WNW,286,5.0,6.0,28,0.00,,,0.00,,2013-03-10 11:52:00,
2013-03-10 05:01:00,47.0,14.0,30.26,WNW,298,6.0,8.0,26,0.00,,,0.00,,2013-03-10 12:01:00,
2013-03-10 05:11:00,47.0,14.0,30.26,WNW,298,6.0,8.0,26,0.00,,,0.00,,2013-03-10 12:11:00,
2013-03-10 05:21:00,48.0,15.0,30.26,WNW,300,4.0,9.0,26,0.00,,,0.00,,2013-03-10 12:21:00,
2013-03-10 05:31:00,48.0,16.0,30.26,WNW,298,6.0,7.0,28,0.00,,,0.00,,2013-03-10 12:31:00,
2013-03-10 05:41:00,48.0,16.0,30.26,WNW,298,6.0,7.0,28,0.00,,,0.00,,2013-03-10 12:41:00,
2013-03-10 05:51:00,47.0,13.0,30.26,WNW,300,4.0,11.0,25,0.00,,,0.00,,2013-03-10 12:51:00,
2013-03-10 06:01:00,47.0,14.0,30.26,NW,305,6.0,9.0,26,0.00,,,0.00,,2013-03-10 13:01:00,
2013-03-10 06:11:00,47.0,14.0,30.26,NW,305,6.0,9.0,26,0.00,,,0.00,,2013-03-10 13:11:00,
2013-03-10 06:21:00,46.0,14.0,30.27,WNW,291,6.0,10.0,27,0.00,,,0.00,,2013-03-10 13:21:00,
2013-03-10 06:31:00,45.0,16.0,30.27,SE,136,4.0,7.0,31,0.00,,,0.00,,2013-03-10 13:31:00,
2013-03-10 06:41:00,45.0,16.0,30.27,SE,136,4.0,7.0,31,0.00,,,0.00,,2013-03-10 13:41:00,
2013-03-10 06:52:00,44.0,16.0,30.28,East,94,3.0,3.0,32,0.00,,,0.00,,2013-03-10 13:52:00,
2013-03-10 07:01:00,43.0,13.0,30.28,North,11,2.0,5.0,29,0.00,,,0.00,,2013-03-10 14:01:00,
2013-03-10 07:11:00,43.0,13.0,30.28,North,11,2.0,5.0,29,0.00,,,0.00,,2013-03-10 14:11:00,
2013-03-10 07:21:00,42.0,15.0,30.29,ESE,119,2.0,4.0,33,0.00,,,0.00,,2013-03-10 14:21:00,
2013-03-10 07:31:00,42.0,15.0,30.29,ESE,119,0.0,2.0,33,0.00,,,0.00,,2013-03-10 14:31:00,
2013-03-10 07:41:00,42.0,15.0,30.29,ESE,119,0.0,2.0,33,0.00,,,0.00,,2013-03-10 14:41:00,
2013-03-10 07:52:00,42.0,16.0,30.30,SSE,150,2.0,6.0,35,0.00,,,0.00,,2013-03-10 14:52:00,
2013-03-10 08:01:00,42.0,14.0,30.31,SSE,149,0.0,3.0,32,0.00,,,0.00,,2013-03-10 15:01:00,
2013-03-10 08:11:00,42.0,14.0,30.31,SSE,149,0.0,3.0,32,0.00,,,0.00,,2013-03-10 15:11:00,
2013-03-10 08:21:00,43.0,17.0,30.32,SE,132,2.0,6.0,34,0.00,,,0.00,,2013-03-10 15:21:00,
2013-03-10 08:31:00,45.0,18.0,30.31,SE,144,1.0,6.0,34,0.00,,,0.00,,2013-03-10 15:31:00,
2013-03-10 08:52:00,48.0,15.0,30.32,SE,139,0.0,5.0,26,0.00,,,0.00,,2013-03-10 15:52:00,
2013-03-10 09:01:00,50.0,14.0,30.32,SE,139,3.0,4.0,23,0.00,,,0.00,,2013-03-10 16:01:00,
2013-03-10 09:11:00,50.0,14.0,30.32,SE,139,3.0,4.0,23,0.00,,,0.00,,2013-03-10 16:11:00,
2013-03-10 09:21:00,53.0,15.0,30.32,SSE,148,2.0,5.0,22,0.00,,,0.00,,2013-03-10 16:21:00,
2013-03-10 09:31:00,54.0,15.0,30.33,SSE,148,0.0,3.0,21,0.00,,,0.00,,2013-03-10 16:31:00,
2013-03-10 09:41:00,54.0,15.0,30.33,SSE,148,0.0,3.0,21,0.00,,,0.00,,2013-03-10 16:41:00,
2013-03-10 09:52:00,56.0,16.0,30.33,SSE,148,0.0,3.0,20,0.00,,,0.00,,2013-03-10 16:52:00,
2013-03-10 10:01:00,57.0,15.0,30.32,SSE,148,0.0,3.0,19,0.00,,,0.00,,2013-03-10 17:01:00,
2013-03-10 10:11:00,57.0,15.0,30.32,SSE,148,0.0,3.0,19,0.00,,,0.00,,2013-03-10 17:11:00,
2013-03-10 10:21:00,60.0,14.0,30.32,SE,135,0.0,2.0,16,0.00,,,0.00,,2013-03-10 17:21:00,
2013-03-10 10:31:00,60.0,15.0,30.32,ESE,123,1.0,4.0,17,0.00,,,0.00,,2013-03-10 17:31:00,
2013-03-10 11:01:00,61.0,18.0,30.30,SE,138,4.0,6.0,19,0.00,,,0.00,,2013-03-10 18:01:00,
2013-03-10 11:31:00,62.0,18.0,30.33,ESE,102,3.0,6.0,18,0.00,,,0.00,,2013-03-10 18:31:00,
2013-03-10 11:52:00,63.0,16.0,30.32,ESE,123,3.0,7.0,16,0.00,,,0.00,,2013-03-10 18:52:00,
2013-03-10 12:01:00,64.0,18.0,30.32,NE,53,0.0,6.0,17,0.00,,,0.00,,2013-03-10 19:01:00,
2013-03-10 12:21:00,65.0,18.0,30.32,ESE,117,1.0,5.0,16,0.00,,,0.00,,2013-03-10 19:21:00,
2013-03-10 12:31:00,65.0,19.0,30.32,SE,142,2.0,6.0,17,0.00,,,0.00,,2013-03-10 19:31:00,
2013-03-10 12:52:00,65.0,19.0,30.31,South,169,2.0,7.0,17,0.00,,,0.00,,2013-03-10 19:52:00,
2013-03-10 13:01:00,66.0,17.0,30.30,ESE,103,3.0,6.0,15,0.00,,,0.00,,2013-03-10 20:01:00,
2013-03-10 13:22:00,66.0,19.0,30.29,ESE,109,2.0,6.0,16,0.00,,,0.00,,2013-03-10 20:22:00,
2013-03-10 13:31:00,67.0,18.0,30.29,ESE,102,3.0,4.0,15,0.00,,,0.00,,2013-03-10 20:31:00,
2013-03-10 13:52:00,67.0,16.0,30.27,SE,125,2.0,5.0,14,0.00,,,0.00,,2013-03-10 20:52:00,
2013-03-10 14:01:00,68.0,15.0,30.27,ESE,110,2.0,6.0,13,0.00,,,0.00,,2013-03-10 21:01:00,
2013-03-10 14:22:00,69.0,14.0,30.25,SE,142,3.0,6.0,12,0.00,,,0.00,,2013-03-10 21:22:00,
2013-03-10 14:31:00,69.0,18.0,30.25,SSE,159,3.0,5.0,14,0.00,,,0.00,,2013-03-10 21:31:00,
2013-03-10 14:52:00,70.0,19.0,30.24,ENE,58,3.0,7.0,14,0.00,,,0.00,,2013-03-10 21:52:00,
2013-03-10 15:01:00,70.0,19.0,30.23,ESE,114,2.0,6.0,14,0.00,,,0.00,,2013-03-10 22:01:00,
2013-03-10 15:21:00,71.0,18.0,30.23,NNW,339,3.0,7.0,13,0.00,,,0.00,,2013-03-10 22:21:00,
2013-03-10 15:32:00,72.0,18.0,30.22,NNW,340,5.0,6.0,13,0.00,,,0.00,,2013-03-10 22:32:00,
2013-03-10 15:52:00,72.0,18.0,30.21,NNW,334,1.0,4.0,13,0.00,,,0.00,,2013-03-10 22:52:00,
2013-03-10 16:02:00,72.0,20.0,30.21,SSE,153,4.0,5.0,14,0.00,,,0.00,,2013-03-10 23:02:00,
2013-03-10 16:11:00,74.0,20.0,30.21,North,350,2.0,6.0,13,0.00,,,0.00,,2013-03-10 23:11:00,
2013-03-10 16:22:00,74.0,20.0,30.21,North,350,2.0,6.0,13,0.00,,,0.00,,2013-03-10 23:22:00,
2013-03-10 16:31:00,73.0,19.0,30.21,North,5,2.0,6.0,13,0.00,,,0.00,,2013-03-10 23:31:00,
2013-03-10 16:52:00,72.0,18.0,30.20,ENE,76,0.0,4.0,13,0.00,,,0.00,,2013-03-10 23:52:00,
2013-03-10 17:01:00,73.0,17.0,30.20,NE,46,0.0,3.0,12,0.00,,,0.00,,2013-03-11 00:01:00,
2013-03-10 17:22:00,72.0,20.0,30.20,NE,52,0.0,2.0,14,0.00,,,0.00,,2013-03-11 00:22:00,
2013-03-10 17:32:00,72.0,18.0,30.20,NE,52,0.0,2.0,13,0.00,,,0.00,,2013-03-11 00:32:00,
2013-03-10 17:52:00,71.0,21.0,30.19,SSE,150,3.0,7.0,15,0.00,,,0.00,,2013-03-11 00:52:00,
2013-03-10 18:02:00,70.0,20.0,30.19,SSE,149,2.0,6.0,15,0.00,,,0.00,,2013-03-11 01:02:00,
2013-03-10 18:22:00,69.0,18.0,30.19,SE,142,4.0,7.0,14,0.00,,,0.00,,2013-03-11 01:22:00,
2013-03-10 18:53:00,67.0,22.0,30.19,SSE,157,2.0,7.0,18,0.00,,,0.00,,2013-03-11 01:53:00,
2013-03-10 19:02:00,66.0,23.0,30.19,SSE,157,1.0,5.0,19,0.00,,,0.00,,2013-03-11 02:02:00,
2013-03-10 19:22:00,64.0,22.0,30.20,SSW,200,7.0,10.0,20,0.00,,,0.00,,2013-03-11 02:22:00,
2013-03-10 19:32:00,63.0,20.0,30.20,SSW,193,9.0,12.0,19,0.00,,,0.00,,2013-03-11 02:32:00,
2013-03-10 19:42:00,63.0,20.0,30.20,SSW,193,9.0,12.0,19,0.00,,,0.00,,2013-03-11 02:42:00,
2013-03-10 19:52:00,62.0,20.0,30.20,SSW,192,12.0,14.0,20,0.00,,,0.00,,2013-03-11 02:52:00,
2013-03-10 20:01:00,62.0,20.0,30.20,SSW,198,10.0,14.0,20,0.00,,,0.00,,2013-03-11 03:01:00,
2013-03-10 20:11:00,62.0,20.0,30.20,SSW,198,10.0,14.0,20,0.00,,,0.00,,2013-03-11 03:11:00,
2013-03-10 20:21:00,61.0,20.0,30.21,SSW,193,10.0,13.0,20,0.00,,,0.00,,2013-03-11 03:21:00,
2013-03-10 20:31:00,60.0,21.0,30.21,SSW,196,8.0,11.0,22,0.00,,,0.00,,2013-03-11 03:31:00,
2013-03-10 20:42:00,60.0,21.0,30.21,SSW,196,8.0,11.0,22,0.00,,,0.00,,2013-03-11 03:42:00,
2013-03-10 20:52:00,60.0,20.0,30.21,SSW,195,5.0,12.0,21,0.00,,,0.00,,2013-03-11 03:52:00,
2013-03-10 21:01:00,59.0,20.0,30.22,South,191,8.0,11.0,22,0.00,,,0.00,,2013-03-11 04:01:00,
2013-03-10 21:11:00,59.0,20.0,30.22,South,191,8.0,11.0,22,0.00,,,0.00,,2013-03-11 04:11:00,
2013-03-10 21:22:00,59.0,23.0,30.22,SSW,197,2.0,4.0,25,0.00,,,0.00,,2013-03-11 04:22:00,
2013-03-10 21:32:00,58.0,22.0,30.23,SSW,196,0.0,5.0,25,0.00,,,0.00,,2013-03-11 04:32:00,
2013-03-10 21:42:00,58.0,22.0,30.23,SSW,196,0.0,5.0,25,0.00,,,0.00,,2013-03-11 04:42:00,
2013-03-10 21:53:00,56.0,23.0,30.24,SW,227,4.0,11.0,27,0.00,,,0.00,,2013-03-11 04:53:00,
2013-03-10 22:01:00,55.0,22.0,30.24,SSW,211,4.0,9.0,27,0.00,,,0.00,,2013-03-11 05:01:00,
2013-03-10 22:11:00,55.0,22.0,30.24,SSW,211,4.0,9.0,27,0.00,,,0.00,,2013-03-11 05:11:00,
2013-03-10 22:22:00,55.0,22.0,30.24,SSW,211,1.0,3.0,27,0.00,,,0.00,,2013-03-11 05:22:00,
2013-03-10 22:31:00,55.0,21.0,30.24,SSW,210,0.0,5.0,26,0.00,,,0.00,,2013-03-11 05:31:00,
2013-03-10 22:42:00,55.0,21.0,30.24,SSW,210,0.0,5.0,26,0.00,,,0.00,,2013-03-11 05:42:00,
2013-03-10 22:52:00,54.0,21.0,30.24,SSW,210,3.0,5.0,27,0.00,,,0.00,,2013-03-11 05:52:00,
2013-03-10 23:01:00,54.0,22.0,30.24,SSW,210,4.0,6.0,28,0.00,,,0.00,,2013-03-11 06:01:00,
2013-03-10 23:22:00,53.0,22.0,30.24,SSW,210,6.0,7.0,29,0.00,,,0.00,,2013-03-11 06:22:00,
2013-03-10 23:42:00,53.0,20.0,30.24,SSW,204,4.0,9.0,27,0.00,,,0.00,,2013-03-11 06:42:00,
2013-03-10 23:52:00,53.0,21.0,30.24,SSW,204,4.0,7.0,28,0.00,,,0.00,,2013-03-11 06:52:00,